Tiempo atmosférico en la estación meteorológica de Es Mercadal, Illes Balears (77 m.)

Fecha
DESCASC
Temp. máxima en grados centígrados (hora)
DESCASC
Temp. mínima en grados centígrados (hora)
DESCASC
Temp. media en grados centígrados
DESCASC
Racha de viento máxima en m/sg (hora)
DESCASC
Velocidad máxima media en intervalos de 10 minutos(hora)
DESCASC
Precipitaciones diarias en mm
DESCASC
Precipitaciones de 00:00 a 06:00 en mm
DESCASC
Precipitaciones de 06:00 a 12:00 en mm
DESCASC
Precipitaciones de 12:00 a 18:00 en mm
DESCASC
Precipitaciones de 18:00 a 24:00 en mm
DESCASC
24-09-2017 26.6 (16:30) 16.7 (07:00) 21.7 8.89 (14:10) 5.56 (14:10) 0 0 0 0 0
23-09-2017 24.5 (12:10) 17 (07:00) 20.8 6.11 (13:00) 3.89 (11:10) -- 0 0 -- 0
22-09-2017 24.8 (15:30) 16.7 (06:30) 20.8 8.61 (14:20) 5.83 (15:50) 0 0 0 0 0
21-09-2017 -- (--) -- (--) -- 9.17 (14:20) 6.39 (13:20) 0 0 0 0 0
20-09-2017 22.3 (14:20) 17.2 (00:00) 19.8 10.28 (01:40) 6.39 (01:00) 0 0 0 0 0
19-09-2017 19.7 (17:30) 16.4 (00:00) 18.1 8.06 (23:59) 5 (17:50) 0.4 0 0.4 0 0
18-09-2017 25 (13:50) 17.6 (00:00) 21.3 18.89 (14:00) 12.78 (14:00) 2.8 0 0 2.8 0
17-09-2017 23.7 (14:00) 13.7 (00:00) 18.7 9.17 (14:50) 6.39 (11:10) 0 0 0 0 0
16-09-2017 19.1 (18:00) 13.9 (00:00) 16.5 13.33 (00:30) 7.22 (00:30) 40 38 0.4 1.6 0
15-09-2017 21.1 (13:00) 16.6 (00:00) 18.9 18.33 (17:00) 11.94 (16:50) 2.4 0 0 2.4 0
14-09-2017 27.2 (16:00) 20 (00:00) 23.6 13.33 (18:50) 9.17 (18:50) 0 0 0 0 0
13-09-2017 26.5 (15:50) 16.9 (00:00) 21.7 8.89 (19:30) 6.11 (19:30) 0 0 0 0 0
12-09-2017 23.1 (12:10) 18.2 (00:00) 20.7 12.78 (11:10) 8.61 (11:20) 0 0 0 0 0
11-09-2017 27.5 (17:10) 15.1 (00:00) 21.3 12.78 (15:30) 8.06 (13:50) 0.8 0.8 0 0 0
10-09-2017 21.1 (15:40) 15.3 (00:00) 18.2 16.67 (12:10) 11.11 (09:10) 9.6 8.2 0 1.4 0
09-09-2017 27.7 (14:30) 17.4 (00:00) 22.6 15 (14:10) 9.72 (13:10) 0.6 0 0 0 0.6
08-09-2017 26.5 (16:40) 18.6 (00:00) 22.6 7.78 (18:00) 5.28 (18:00) 0 0 0 0 0
07-09-2017 23.6 (14:20) 20 (00:00) 21.8 8.89 (13:40) 6.11 (13:50) 0.8 0 0.8 0 0
06-09-2017 26.6 (12:30) 20.8 (00:00) 23.7 11.11 (12:20) 7.78 (12:00) 0 0 0 0 0
05-09-2017 29.5 (12:10) 20.3 (00:00) 24.9 6.39 (15:30) 4.17 (14:50) 0 0 0 0 0
04-09-2017 27.4 (14:40) 20.4 (00:00) 23.9 8.89 (14:30) 5.83 (14:40) 0 0 0 0 0
03-09-2017 27.3 (14:30) 17.2 (00:00) 22.3 8.89 (13:20) 5.56 (14:00) 0 0 0 0 0
02-09-2017 23 (14:40) 18 (00:00) 20.5 10 (09:50) 6.67 (09:50) 0.4 0 0.4 0 0
01-09-2017 24.3 (13:10) 20.6 (00:00) 22.4 11.11 (15:30) 7.78 (14:30) 0 0 0 0 0
31-08-2017 29.3 (15:00) 20.1 (00:00) 24.7 11.94 (16:30) 8.06 (15:50) 31.8 0 0 28.8 3
30-08-2017 30.3 (15:10) 22.3 (00:00) 26.3 10.28 (05:00) 6.11 (08:30) 1.4 0 1.4 0 0
29-08-2017 32.7 (14:40) 24.4 (00:00) 28.6 6.67 (15:10) 4.72 (14:50) 0 0 0 0 0
28-08-2017 33.3 (15:50) 22.2 (00:00) 27.8 7.78 (16:00) 5 (16:00) 0 0 0 0 0
27-08-2017 35.8 (15:30) 21.6 (00:00) 28.7 8.61 (16:50) 6.11 (16:50) 0 0 0 0 0
26-08-2017 32.1 (13:20) 21.2 (00:00) 26.6 8.89 (15:00) 6.11 (14:50) 0 0 0 0 0

Gráficas

Temp. máximas Temp. mínimas Temp. medias Precipitaciones Rachas de viento máximas Velocidades máximas media en intervalos de 10 minutos

Datos horarios

Fecha y hora oficial Temperatura (ºC) Velocidad del viento (km/h) Dirección del viento Racha (km/h) Dirección de racha Precipitación (mm) Presión (hPa) Tendencia (hPa) Humedad (%)
2017-09-24 23:00:00 21 9 Sudoeste 16 Sur 0 -- -- 87
2017-09-24 22:00:00 21.1 13 Sur 17 Sur 0 -- -- 88
2017-09-24 21:00:00 20.9 9 Sudoeste 12 Sudoeste 0 -- -- 84
2017-09-24 20:00:00 21.6 5 Sur 16 Sudoeste 0 -- -- 79
2017-09-24 19:00:00 23.1 12 Sudoeste 21 Sudoeste 0 -- -- 71
2017-09-24 18:00:00 24.4 15 Sudoeste 24 Sudoeste 0 -- -- 68
2017-09-24 17:00:00 25.5 16 Sudoeste 24 Sudoeste 0 -- -- 66
2017-09-24 16:00:00 26.3 16 Oeste 26 Noroeste 0 -- -- 55
2017-09-24 15:00:00 25 13 Oeste 32 Norte 0 -- -- 69
2017-09-24 14:00:00 24.8 13 Noroeste 26 Noroeste 0 -- -- 72
2017-09-24 13:00:00 25.8 8 Oeste 26 Oeste 0 -- -- 63
2017-09-24 12:00:00 23.9 10 Noroeste 17 Oeste 0 -- -- 66
2017-09-24 11:00:00 23.1 10 Oeste 17 Oeste 0 -- -- 75
2017-09-24 10:00:00 22 6 Sudoeste 9 Oeste 0 -- -- 83
2017-09-24 09:00:00 19.5 4 Sudoeste 8 Sudoeste 0 -- -- 92
2017-09-24 08:00:00 17.7 2 Sudoeste 7 Sudoeste 0 -- -- 90
2017-09-24 07:00:00 16.7 5 Sudoeste 6 Sudoeste 0 -- -- 92
2017-09-24 06:00:00 17.1 3 Sudoeste 6 Sur 0 -- -- 93
2017-09-24 05:00:00 17.2 4 Sudoeste 6 Sudoeste 0 -- -- 95
2017-09-24 04:00:00 17.3 3 Sur 5 Sudoeste 0 -- -- 96
2017-09-24 03:00:00 17.1 2 Sudoeste 7 Sudoeste 0 -- -- 96
2017-09-24 02:00:00 17.6 2 Sudoeste 5 Oeste 0 -- -- 95
2017-09-24 01:00:00 17.5 3 Sudoeste 5 Oeste 0 -- -- 95
2017-09-24 00:00:00 17.5 2 Oeste 4 Oeste 0 -- -- 94
2017-09-23 23:00:00 17.8 3 Sudoeste 5 Sur 0 -- -- 94
2017-09-23 22:00:00 18.1 3 Sudoeste 4 Sudoeste 0 -- -- 94
2017-09-23 21:00:00 18.7 2 Sur 3 Oeste 0 -- -- 91
2017-09-23 20:00:00 20.1 0 Calma 7 Nordeste 0 -- -- 87
2017-09-23 19:00:00 21.3 6 Nordeste 13 Norte 0 -- -- 81
2017-09-23 18:00:00 22.3 8 Nordeste 11 Nordeste 0 -- -- 75
2017-09-23 17:00:00 22.2 8 Nordeste 12 Norte 0 -- -- 74
2017-09-23 16:00:00 22.2 5 Norte 8 Norte 0 -- -- 81
2017-09-23 15:00:00 19.8 8 Norte 19 Noroeste 0 -- -- 93
2017-09-23 14:00:00 20.6 12 Noroeste -- -- -- -- -- 85
2017-09-23 13:00:00 23.8 12 Este 22 Este 0 -- -- 69
2017-09-23 12:00:00 24.4 10 Este 20 Nordeste 0 -- -- 69
2017-09-23 11:00:00 22.9 10 Nordeste 21 Nordeste 0 -- -- 75
2017-09-23 10:00:00 21.6 5 Nordeste 9 Nordeste 0 -- -- 80
2017-09-23 09:00:00 18.7 2 Nordeste 4 Nordeste 0 -- -- 93
2017-09-23 08:00:00 17.2 0 Calma 5 Oeste 0 -- -- 95
2017-09-23 07:00:00 17 4 Sudoeste 5 Sudoeste 0 -- -- 94
2017-09-23 06:00:00 17.3 4 Sur 7 Sudeste 0 -- -- 91
2017-09-23 05:00:00 17.5 2 Oeste 6 Sudoeste 0 -- -- 93
2017-09-23 04:00:00 17.2 4 Sudoeste 5 Oeste 0 -- -- 93
2017-09-23 03:00:00 17.9 4 Sudoeste 7 Oeste 0 -- -- 95
2017-09-23 02:00:00 18.1 0 Calma 5 Sudeste 0 -- -- 92
2017-09-23 01:00:00 18.3 3 Oeste 5 Este 0 -- -- 93
2017-09-23 00:00:00 18.6 3 Este 10 Este 0 -- -- 92
2017-09-22 23:00:00 18.9 3 Nordeste 9 Este 0 -- -- 88
2017-09-22 22:00:00 19.2 3 Este 4 Este 0 -- -- 88
2017-09-22 21:00:00 19.8 0 Calma 5 Este 0 -- -- 84
2017-09-22 20:00:00 20.8 4 Nordeste 16 Nordeste 0 -- -- 80
2017-09-22 19:00:00 22 10 Nordeste 22 Nordeste 0 -- -- 76
2017-09-22 18:00:00 22.9 14 Nordeste 22 Nordeste 0 -- -- 72
2017-09-22 17:00:00 23.4 19 Nordeste 27 Nordeste 0 -- -- 68
2017-09-22 16:00:00 23.9 19 Nordeste 28 Nordeste 0 -- -- 66
2017-09-22 15:00:00 24.5 15 Este 31 Este 0 -- -- 67
2017-09-22 14:00:00 23.9 16 Este 28 Nordeste 0 -- -- 68
2017-09-22 13:00:00 23.4 15 Nordeste 26 Nordeste 0 -- -- 68
2017-09-22 12:00:00 23.3 13 Este 23 Nordeste 0 -- -- 68
2017-09-22 11:00:00 22.9 14 Este 26 Este 0 -- -- 69
2017-09-22 10:00:00 22.9 11 Este 21 Este 0 -- -- 72
2017-09-22 09:00:00 19.1 3 Oeste 6 Oeste 0 -- -- 86
2017-09-22 08:00:00 17.2 0 Calma 5 Oeste 0 -- -- 91
2017-09-22 07:00:00 16.9 3 Oeste 5 Sudoeste 0 -- -- 92
2017-09-22 06:00:00 17 4 Sudoeste 5 Sudoeste 0 -- -- 90
2017-09-22 05:00:00 17.3 0 Calma 6 Oeste 0 -- -- 88
2017-09-22 04:00:00 17.3 4 Sudoeste 7 Sur 0 -- -- 88
2017-09-22 03:00:00 18.2 6 Sur 9 Sur 0 -- -- 84
2017-09-22 02:00:00 18.5 4 Sur 8 Sur 0 -- -- 83
2017-09-22 01:00:00 19 3 Sudoeste 14 Sudeste 0 -- -- 80
2017-09-22 00:00:00 19.3 9 Sur 12 Sur 0 -- -- 80
2017-09-21 23:00:00 19.6 4 Sur 14 Sur 0 -- -- 77
2017-09-21 22:00:00 19.8 11 Sur 15 Sudeste 0 -- -- 76
2017-09-21 21:00:00 20.2 12 Sudeste 17 Sur -- -- -- 76
2017-09-21 20:00:00 21.1 13 Sur 20 Sur 0 -- -- 70
2017-09-21 19:00:00 22.5 12 Sur -- -- -- -- -- 66
2017-09-21 18:00:00 -- 15 Sur 24 Sur 0 -- -- --
2017-09-21 17:00:00 24.2 15 Sur 29 Sudoeste 0 -- -- 60
2017-09-21 16:00:00 24.6 16 Sudoeste 29 Sur 0 -- -- 60
2017-09-21 15:00:00 24 17 Sudoeste 33 Sudoeste 0 -- -- 62
2017-09-21 14:00:00 24.3 19 Sudoeste 31 Sur 0 -- -- 60
2017-09-21 13:00:00 23.2 17 Sudoeste 31 Sudoeste 0 -- -- 67
2017-09-21 12:00:00 23.4 16 Sur 26 Sur 0 -- -- 64
2017-09-21 11:00:00 22.9 19 Sur 25 Sur 0 -- -- 67
2017-09-21 10:00:00 21.3 6 Sur 8 Sur 0 -- -- 77
2017-09-21 09:00:00 19.4 7 Sudoeste 10 Sur 0 -- -- 83
2017-09-21 08:00:00 18.6 0 Calma 4 Sur 0 -- -- 82
2017-09-21 07:00:00 18.6 2 Sur 8 Sudoeste 0 -- -- 82
2017-09-21 06:00:00 18.2 7 Sudoeste 12 Sudoeste 0 -- -- 83
2017-09-21 05:00:00 18 9 Sudoeste 11 Sudoeste 0 -- -- 83
2017-09-21 04:00:00 17.8 8 Sudoeste 11 Oeste 0 -- -- 84
2017-09-21 03:00:00 17.9 8 Sudoeste 11 Sudoeste 0 -- -- 84
2017-09-21 02:00:00 18.4 9 Sudoeste 12 Sudoeste 0 -- -- 81
2017-09-21 01:00:00 18.8 9 Sudoeste 15 Sudoeste 0 -- -- 79
2017-09-21 00:00:00 19.3 10 Sudoeste 14 Sudoeste 0 -- -- 78
2017-09-20 23:00:00 19.3 6 Sudoeste 13 Sudoeste 0 -- -- 78
2017-09-20 22:00:00 19.3 11 Sur 14 Sur 0 -- -- 75
2017-09-20 21:00:00 18.9 10 Sur 13 Sur 0 -- -- 75
2017-09-20 20:00:00 19.6 6 Sur 14 Sur 0 -- -- 72
2017-09-20 19:00:00 21.1 12 Sur 22 Sur 0 -- -- 65
2017-09-20 18:00:00 21.8 13 Sudoeste 23 Sur 0 -- -- 61
2017-09-20 17:00:00 22 12 Sudoeste 21 Sur 0 -- -- 61
2017-09-20 16:00:00 21.4 10 Sudoeste 20 Sur 0 -- -- 61
2017-09-20 15:00:00 20.9 14 Sudoeste 21 Sudoeste 0 -- -- 62
2017-09-20 14:00:00 22.1 4 Oeste 13 Oeste 0 -- -- 54
2017-09-20 13:00:00 21.2 9 Norte 17 Norte 0 -- -- 56
2017-09-20 12:00:00 20.1 6 Nordeste 21 Norte 0 -- -- 58
2017-09-20 11:00:00 19.6 14 Nordeste 22 Norte 0 -- -- 60
2017-09-20 10:00:00 19.7 10 Norte 16 Norte 0 -- -- 64
2017-09-20 09:00:00 18.9 8 Norte 13 Norte 0 -- -- 66
2017-09-20 08:00:00 17.5 4 Nordeste 14 Norte 0 -- -- 71
2017-09-20 07:00:00 17.7 6 Norte 15 Norte 0 -- -- 70
2017-09-20 06:00:00 17.8 11 Norte 21 Norte 0 -- -- 68
2017-09-20 05:00:00 18 7 Norte 19 Norte 0 -- -- 68
2017-09-20 04:00:00 18 13 Norte 27 Norte 0 -- -- 65
2017-09-20 03:00:00 18.3 15 Norte 32 Norte 0 -- -- 63
2017-09-20 02:00:00 18.6 17 Norte 37 Norte 0 -- -- 59
2017-09-20 01:00:00 19 23 Norte 34 Norte 0 -- -- 57
2017-09-20 00:00:00 18.4 15 Norte 29 Norte 0 -- -- 59
2017-09-19 23:00:00 16.5 3 Sudoeste 4 Oeste 0 -- -- 71
2017-09-19 22:00:00 16.5 0 Calma 6 Norte 0 -- -- 75
2017-09-19 21:00:00 17.1 3 Nordeste 7 Nordeste 0 -- -- 69
2017-09-19 20:00:00 17.8 6 Nordeste 19 Nordeste 0 -- -- 66
2017-09-19 19:00:00 19.1 14 Nordeste 24 Nordeste 0 -- -- 62
2017-09-19 18:00:00 19.1 17 Nordeste 25 Nordeste 0 -- -- 61
2017-09-19 17:00:00 19.3 13 Nordeste 26 Nordeste 0 -- -- 63
2017-09-19 16:00:00 19.3 12 Norte 22 Nordeste 0 -- -- 64
2017-09-19 15:00:00 19 13 Nordeste 20 Norte 0 -- -- 64
2017-09-19 14:00:00 18.5 5 Nordeste 23 Nordeste 0 -- -- 70
2017-09-19 13:00:00 18.5 14 Norte 24 Norte 0 -- -- 70
2017-09-19 12:00:00 17.9 10 Nordeste 17 Nordeste 0 -- -- 83
2017-09-19 11:00:00 17 11 Norte 23 Norte 0.4 -- -- 88
2017-09-19 10:00:00 18.6 11 Norte 21 Nordeste 0 -- -- 73
2017-09-19 09:00:00 18.8 15 Nordeste 21 Norte 0 -- -- 70
2017-09-19 08:00:00 17.6 6 Nordeste 20 Nordeste 0 -- -- 72
2017-09-19 07:00:00 17.6 13 Nordeste 25 Nordeste 0 -- -- 67
2017-09-19 06:00:00 17.8 10 Norte 24 Norte 0 -- -- 67
2017-09-19 05:00:00 18.2 12 Norte 20 Norte 0 -- -- 65
2017-09-19 04:00:00 18.1 14 Norte 25 Norte 0 -- -- 67
2017-09-19 03:00:00 17.9 14 Norte 25 Noroeste 0 -- -- 67
2017-09-19 02:00:00 17.7 12 Norte 26 Norte 0 -- -- 70
2017-09-19 01:00:00 18.1 13 Norte 28 Norte 0 -- -- 70
2017-09-19 00:00:00 18.3 20 Norte 32 Norte 0 -- -- 71
2017-09-18 23:00:00 17.6 10 Nordeste 29 Norte 0 -- -- 87
2017-09-18 22:00:00 18.6 14 Norte 26 Norte 0 -- -- 84
2017-09-18 21:00:00 18.7 16 Nordeste 26 Nordeste 0 -- -- 87
2017-09-18 20:00:00 19.1 15 Nordeste 33 Norte 0 -- -- 87
2017-09-18 19:00:00 19.7 24 Nordeste 37 Nordeste 0 -- -- 89
2017-09-18 18:00:00 20.8 16 Norte 29 Nordeste 0 -- -- 86
2017-09-18 17:00:00 20.9 12 Norte 19 Norte 0.4 -- -- 88
2017-09-18 16:00:00 19.2 16 Norte 32 Norte 2.4 -- -- 91
2017-09-18 15:00:00 23 19 Norte 57 Sudoeste 0 -- -- 72
2017-09-18 14:00:00 24.9 46 Sudoeste 68 Sudoeste 0 -- -- 71
2017-09-18 13:00:00 24.8 31 Sudoeste 51 Sudoeste 0 -- -- 69
2017-09-18 12:00:00 24.5 35 Sudoeste 55 Sudoeste 0 -- -- 68
2017-09-18 11:00:00 24.2 28 Sur 47 Sudoeste 0 -- -- 68
2017-09-18 10:00:00 23.4 30 Sur 48 Sur 0 -- -- 68
2017-09-18 09:00:00 22.4 23 Sur 33 Sur 0 -- -- 73
2017-09-18 08:00:00 20.5 10 Sur 24 Sur 0 -- -- 80
2017-09-18 07:00:00 19.6 14 Sur 23 Sur 0 -- -- 85
2017-09-18 06:00:00 19.6 10 Sur 14 Sur 0 -- -- 83
2017-09-18 05:00:00 19.5 9 Sur 12 Sudoeste 0 -- -- 84
2017-09-18 04:00:00 18.3 5 Sur 7 Sur 0 -- -- 89
2017-09-18 03:00:00 18.3 3 Sur 4 Sudeste 0 -- -- 88
2017-09-18 02:00:00 18.8 0 Calma 8 Sudeste 0 -- -- 86
2017-09-18 01:00:00 19.2 0 Calma 6 Sudoeste 0 -- -- 83
2017-09-18 00:00:00 19.4 6 Sudoeste 12 Sudoeste 0 -- -- 81
2017-09-17 23:00:00 20.2 9 Sudoeste 14 Sudoeste 0 -- -- 77
2017-09-17 22:00:00 21.2 12 Sudoeste 26 Sudoeste 0 -- -- 76
2017-09-17 21:00:00 21.1 14 Sudoeste 20 Sudoeste 0 -- -- 75
2017-09-17 20:00:00 21.1 12 Sudoeste 21 Sur 0 -- -- 72
2017-09-17 19:00:00 22.5 15 Sur 28 Sur 0 -- -- 64
2017-09-17 18:00:00 22.8 18 Sur 30 Sur 0 -- -- 63
2017-09-17 17:00:00 23 19 Sur 29 Sur 0 -- -- 56
2017-09-17 16:00:00 23.4 21 Sudoeste 31 Sudoeste 0 -- -- 51
2017-09-17 15:00:00 23.3 22 Sudoeste 33 Sudoeste 0 -- -- 51
2017-09-17 14:00:00 23.7 17 Sudoeste 30 Sudoeste 0 -- -- 50
2017-09-17 13:00:00 23.6 17 Sudoeste 31 Sudoeste 0 -- -- 48
2017-09-17 12:00:00 22.4 19 Oeste 30 Sudoeste 0 -- -- 58
2017-09-17 11:00:00 21.8 21 Sudoeste 30 Sudoeste 0 -- -- 61
2017-09-17 10:00:00 20.7 11 Sur 15 Sur 0 -- -- 65
2017-09-17 09:00:00 18.1 6 Sur 10 Sudoeste 0 -- -- 78
2017-09-17 08:00:00 15.4 6 Sur 14 Sur 0 -- -- 86
2017-09-17 07:00:00 13.7 5 Sudoeste 9 Sudoeste 0 -- -- 94
2017-09-17 06:00:00 13.9 3 Sur 6 Oeste 0 -- -- 94
2017-09-17 05:00:00 14.5 0 Calma 6 Oeste 0 -- -- 91
2017-09-17 04:00:00 15.3 0 Calma 9 Norte 0 -- -- 89
2017-09-17 03:00:00 15.8 7 Nordeste 22 Norte 0 -- -- 89
2017-09-17 02:00:00 14.6 8 Sudoeste 10 Sudoeste 0 -- -- 94
2017-09-17 01:00:00 14.3 5 Norte 8 Nordeste 0 -- -- 93
2017-09-17 00:00:00 15 3 Sudoeste 9 Sur 0 -- -- 91
2017-09-16 23:00:00 14.9 4 Sudoeste 8 Sur 0 -- -- 92
2017-09-16 22:00:00 15.2 4 Sudoeste 8 Sur 0 -- -- 92
2017-09-16 21:00:00 15.8 4 Sudoeste 5 Sudoeste 0 -- -- 90
2017-09-16 20:00:00 17.4 3 Oeste 13 Nordeste 0 -- -- 82
2017-09-16 19:00:00 18.5 10 Nordeste 21 Nordeste 0 -- -- 75
2017-09-16 18:00:00 19.1 13 Nordeste 27 Nordeste 0 -- -- 73
2017-09-16 17:00:00 18.6 18 Nordeste 26 Nordeste 0 -- -- 77
2017-09-16 16:00:00 17.4 10 Nordeste 16 Nordeste 0.2 -- -- 89
2017-09-16 15:00:00 17.2 11 Nordeste 18 Nordeste 0 -- -- 88
2017-09-16 14:00:00 17.2 9 Nordeste 19 Nordeste 0 -- -- 90
2017-09-16 13:00:00 16.6 6 Norte 22 Nordeste 1.4 -- -- 91
2017-09-16 12:00:00 17.5 16 Nordeste 30 Nordeste 0.2 -- -- 81
2017-09-16 11:00:00 18 14 Nordeste 24 Nordeste 0 -- -- 76
2017-09-16 10:00:00 17.5 9 Nordeste 18 Nordeste 0 -- -- 79
2017-09-16 09:00:00 16.5 12 Nordeste 20 Norte 0 -- -- 85
2017-09-16 08:00:00 15.8 12 Nordeste 18 Nordeste 0.2 -- -- 89
2017-09-16 07:00:00 15 10 Nordeste 21 Nordeste 0 -- -- 94
2017-09-16 06:00:00 14.8 12 Nordeste 23 Nordeste 0 -- -- 94
2017-09-16 05:00:00 13.9 14 Nordeste 18 Norte 1.6 -- -- 99
2017-09-16 04:00:00 14.1 10 Norte 20 Nordeste 16.2 -- -- 99
2017-09-16 03:00:00 14.4 13 Nordeste 28 Nordeste 14 -- -- 98
2017-09-16 02:00:00 14.7 17 Nordeste 34 Nordeste 5.2 -- -- 97
2017-09-16 01:00:00 14.8 18 Norte 48 Norte 1 -- -- 94
2017-09-16 00:00:00 17.7 24 Norte 39 Norte 0 -- -- 69
2017-09-15 23:00:00 17.8 21 Nordeste 37 Nordeste 0 -- -- 74
2017-09-15 22:00:00 17.7 22 Nordeste 35 Nordeste 0 -- -- 75
2017-09-15 21:00:00 17.8 23 Nordeste 34 Nordeste 0 -- -- 78
2017-09-15 20:00:00 17.6 19 Nordeste 27 Nordeste 0 -- -- 82
2017-09-15 19:00:00 17.8 17 Nordeste 30 Nordeste 0 -- -- 87
2017-09-15 18:00:00 18.4 17 Nordeste 43 Este 0 -- -- 83
2017-09-15 17:00:00 16.8 35 Este 66 Este 2.2 -- -- 87
2017-09-15 16:00:00 19 25 Nordeste 42 Nordeste 0.2 -- -- 74
2017-09-15 15:00:00 19.5 23 Nordeste 41 Este 0 -- -- 71
2017-09-15 14:00:00 20.4 25 Nordeste 47 Nordeste 0 -- -- 65
2017-09-15 13:00:00 21.1 24 Nordeste 37 Nordeste 0 -- -- 64
2017-09-15 12:00:00 20.1 22 Nordeste 31 Nordeste 0 -- -- 68
2017-09-15 11:00:00 20.3 22 Nordeste 36 Nordeste 0 -- -- 69
2017-09-15 10:00:00 20.6 21 Nordeste 32 Nordeste 0 -- -- 69
2017-09-15 09:00:00 20.2 16 Nordeste 27 Nordeste 0 -- -- 68
2017-09-15 08:00:00 19.8 17 Nordeste 31 Nordeste 0 -- -- 67
2017-09-15 07:00:00 19.9 21 Nordeste 29 Nordeste 0 -- -- 68
2017-09-15 06:00:00 20 14 Nordeste 25 Nordeste 0 -- -- 66
2017-09-15 05:00:00 19.9 13 Nordeste 28 Nordeste 0 -- -- 65
2017-09-15 04:00:00 20.1 19 Nordeste 33 Nordeste 0 -- -- 68
2017-09-15 03:00:00 20.6 17 Nordeste 29 Nordeste 0 -- -- 62
2017-09-15 02:00:00 20.6 19 Nordeste 31 Nordeste 0 -- -- 63
2017-09-15 01:00:00 20.3 19 Nordeste 34 Nordeste 0 -- -- 67
2017-09-15 00:00:00 20.1 22 Nordeste 37 Nordeste 0 -- -- 68
2017-09-14 23:00:00 20.2 26 Nordeste 39 Nordeste 0 -- -- 72
2017-09-14 22:00:00 20.6 24 Nordeste 40 Nordeste 0 -- -- 71
2017-09-14 21:00:00 21 27 Nordeste 39 Nordeste 0 -- -- 73
2017-09-14 20:00:00 21.4 23 Nordeste 46 Nordeste 0 -- -- 73
2017-09-14 19:00:00 21.6 32 Nordeste 48 Nordeste 0 -- -- 80
2017-09-14 18:00:00 25.5 22 Norte 35 Norte 0 -- -- 64
2017-09-14 17:00:00 25.2 21 Norte 34 Norte 0 -- -- 69
2017-09-14 16:00:00 27.2 10 Sudoeste 24 Sudoeste 0 -- -- 64
2017-09-14 15:00:00 26.7 16 Sudoeste 30 Sur 0 -- -- 66
2017-09-14 14:00:00 26.2 20 Sur 36 Sudoeste 0 -- -- 66
2017-09-14 13:00:00 25.4 22 Sudoeste 37 Sur 0 -- -- 69
2017-09-14 12:00:00 25.4 22 Sur 35 Sur 0 -- -- 67
2017-09-14 11:00:00 24.9 23 Sudoeste 39 Sudoeste 0 -- -- 70
2017-09-14 10:00:00 24.1 26 Sudoeste 42 Sudoeste 0 -- -- 73
2017-09-14 09:00:00 23.1 23 Sur 34 Sur 0 -- -- 76
2017-09-14 08:00:00 21.5 17 Sur 25 Sudoeste 0 -- -- 81
2017-09-14 07:00:00 21.1 13 Sudoeste 23 Sudoeste 0 -- -- 82
2017-09-14 06:00:00 21 14 Sudoeste 22 Sur 0 -- -- 83
2017-09-14 05:00:00 20.9 11 Sur 21 Sur 0 -- -- 82
2017-09-14 04:00:00 21.1 10 Sur 21 Sudoeste 0 -- -- 80
2017-09-14 03:00:00 21.4 15 Sur 24 Sur 0 -- -- 78
2017-09-14 02:00:00 21.2 12 Sudoeste 22 Sudoeste 0 -- -- 80
2017-09-14 01:00:00 21.4 12 Sudoeste 19 Sudoeste 0 -- -- 79
2017-09-14 00:00:00 21.4 12 Sudoeste 18 Sudoeste 0 -- -- 78
2017-09-13 23:00:00 21.4 10 Sudoeste 14 Sur 0 -- -- 77
2017-09-13 22:00:00 22 11 Sur 28 Sudoeste 0 -- -- 73
2017-09-13 21:00:00 22.3 18 Sur 27 Sudoeste 0 -- -- 72
2017-09-13 20:00:00 22.8 17 Sudoeste 32 Sudoeste 0 -- -- 69
2017-09-13 19:00:00 24.2 20 Sudoeste 28 Sudoeste 0 -- -- 62
2017-09-13 18:00:00 25.3 16 Sudoeste 25 Sur 0 -- -- 61
2017-09-13 17:00:00 25.7 17 Sudoeste 28 Sudoeste 0 -- -- 60
2017-09-13 16:00:00 26.3 14 Sur 30 Sudoeste 0 -- -- 58
2017-09-13 15:00:00 26.2 15 Sudoeste 30 Sudoeste 0 -- -- 58
2017-09-13 14:00:00 25.6 18 Sudoeste 31 Sudoeste 0 -- -- 59
2017-09-13 13:00:00 25.5 17 Sur 28 Sudoeste 0 -- -- 59
2017-09-13 12:00:00 25.1 15 Sur 25 Sudoeste 0 -- -- 59
2017-09-13 11:00:00 23.9 14 Sur 28 Sur 0 -- -- 62
2017-09-13 10:00:00 23.3 13 Sur 21 Sur 0 -- -- 65
2017-09-13 09:00:00 21.2 5 Sur 9 Sur 0 -- -- 70
2017-09-13 08:00:00 17.8 4 Sur 6 Sur 0 -- -- 80
2017-09-13 07:00:00 17.2 5 Sur 6 Sur 0 -- -- 81
2017-09-13 06:00:00 17.3 2 Sudoeste 4 Sudoeste 0 -- -- 81
2017-09-13 05:00:00 17.4 3 Sur 6 Sur 0 -- -- 81
2017-09-13 04:00:00 17.5 4 Sur 6 Sudoeste 0 -- -- 81
2017-09-13 03:00:00 17.7 2 Sudoeste 5 Sudoeste 0 -- -- 82
2017-09-13 02:00:00 17.3 3 Sudoeste 5 Sudoeste 0 -- -- 83
2017-09-13 01:00:00 17.8 0 Calma 4 Oeste 0 -- -- 81
2017-09-13 00:00:00 18.2 0 Calma 5 Nordeste 0 -- -- 79
2017-09-12 23:00:00 19 0 Calma 6 Nordeste 0 -- -- 76
2017-09-12 22:00:00 19.7 6 Nordeste 15 Nordeste 0 -- -- 73
2017-09-12 21:00:00 20 9 Nordeste 25 Nordeste 0 -- -- 72
2017-09-12 20:00:00 20.1 13 Nordeste 28 Nordeste 0 -- -- 72
2017-09-12 19:00:00 20.4 19 Nordeste 34 Nordeste 0 -- -- 71
2017-09-12 18:00:00 21.2 21 Nordeste 33 Nordeste 0 -- -- 65
2017-09-12 17:00:00 20.9 23 Nordeste 35 Nordeste 0 -- -- 67
2017-09-12 16:00:00 21 27 Nordeste 44 Nordeste 0 -- -- 68
2017-09-12 15:00:00 21.4 26 Nordeste 39 Nordeste 0 -- -- 68
2017-09-12 14:00:00 21.1 24 Nordeste 42 Nordeste 0 -- -- 68
2017-09-12 13:00:00 21.9 27 Nordeste 45 Nordeste 0 -- -- 67
2017-09-12 12:00:00 22.7 29 Nordeste 46 Nordeste 0 -- -- 64
2017-09-12 11:00:00 22.3 28 Nordeste 45 Nordeste 0 -- -- 67
2017-09-12 10:00:00 21.9 22 Nordeste 39 Este 0 -- -- 66
2017-09-12 09:00:00 21 23 Nordeste 36 Este 0 -- -- 68
2017-09-12 08:00:00 20.8 14 Nordeste 28 Este 0 -- -- 70
2017-09-12 07:00:00 20.6 16 Este 28 Este 0 -- -- 70
2017-09-12 06:00:00 20.8 16 Este 30 Este 0 -- -- 72
2017-09-12 05:00:00 20.9 12 Este 27 Este 0 -- -- 75
2017-09-12 04:00:00 20.9 12 Este 25 Este 0 -- -- 78
2017-09-12 03:00:00 20.9 12 Este 24 Este 0 -- -- 80
2017-09-12 02:00:00 20.8 13 Este 27 Este 0 -- -- 82
2017-09-12 01:00:00 21 13 Este 26 Sudeste 0 -- -- 82
2017-09-12 00:00:00 21.2 12 Este 22 Este 0 -- -- 83
2017-09-11 23:00:00 21.4 6 Este 21 Este 0 -- -- 85
2017-09-11 22:00:00 21.9 11 Este 21 Nordeste 0 -- -- 86
2017-09-11 21:00:00 22.4 10 Este 18 Este 0 -- -- 83
2017-09-11 20:00:00 23.7 10 Nordeste 18 Sur 0 -- -- 76
2017-09-11 19:00:00 27.5 9 Oeste 37 Noroeste 0 -- -- 54
2017-09-11 18:00:00 27.1 15 Noroeste 32 Noroeste 0 -- -- 48
2017-09-11 17:00:00 27.3 22 Oeste 45 Oeste 0 -- -- 47
2017-09-11 16:00:00 26.8 26 Oeste 46 Oeste 0 -- -- 53
2017-09-11 15:00:00 26.3 26 Oeste 42 Noroeste -- -- -- 57
2017-09-11 14:00:00 26.7 25 Oeste 43 Sudoeste 0 -- -- 56
2017-09-11 13:00:00 26 25 Oeste 39 Sudoeste 0 -- -- 57
2017-09-11 12:00:00 25.4 25 Oeste 40 Sudoeste 0 -- -- 58
2017-09-11 11:00:00 24.2 21 Oeste 35 Oeste 0 -- -- 61
2017-09-11 10:00:00 23 21 Oeste 31 Oeste 0 -- -- 62
2017-09-11 09:00:00 20.7 9 Sudoeste 15 Sudoeste 0 -- -- 71
2017-09-11 08:00:00 17.7 10 Oeste 15 Oeste 0 -- -- 79
2017-09-11 07:00:00 16.7 6 Sudoeste 12 Sur 0 -- -- 84
2017-09-11 06:00:00 16.8 6 Sur 10 Sur 0 -- -- 83
2017-09-11 05:00:00 16.2 4 Sur 7 Sur 0 -- -- 88
2017-09-11 04:00:00 15.7 5 Sudoeste 8 Sur 0 -- -- 89
2017-09-11 03:00:00 15.1 3 Sudoeste 4 Oeste 0 -- -- 92
2017-09-11 02:00:00 15.3 3 Sudoeste 5 Oeste 0 -- -- 92
2017-09-11 01:00:00 16.2 5 Sur 18 Sudoeste 0.8 -- -- 88
2017-09-11 00:00:00 16 0 Calma 5 Sur 0 -- -- 80
2017-09-10 23:00:00 15.5 3 Oeste 6 Oeste 0 -- -- 84
2017-09-10 22:00:00 15.8 5 Sur 7 Sur 0 -- -- 85
2017-09-10 21:00:00 16.6 4 Oeste 6 Sudoeste 0 -- -- 82
2017-09-10 20:00:00 19 6 Oeste 18 Noroeste 0 -- -- 70
2017-09-10 19:00:00 19.8 13 Oeste 26 Noroeste 0 -- -- 66
2017-09-10 18:00:00 20.8 14 Oeste 27 Oeste 0 -- -- 67
2017-09-10 17:00:00 17.5 25 Oeste 42 Oeste 1.4 -- -- 86
2017-09-10 16:00:00 20.7 27 Norte 49 Norte 0 -- -- 59
2017-09-10 15:00:00 20.5 30 Norte 54 Norte 0 -- -- 58
2017-09-10 14:00:00 19.7 32 Norte 53 Norte 0 -- -- 59
2017-09-10 13:00:00 19 27 Norte 60 Norte 0 -- -- 65
2017-09-10 12:00:00 19.9 37 Norte 57 Norte 0 -- -- 59
2017-09-10 11:00:00 18.9 29 Norte 50 Norte 0 -- -- 64
2017-09-10 10:00:00 18.3 27 Norte 59 Norte 0 -- -- 67
2017-09-10 09:00:00 18.1 34 Norte 53 Norte 0 -- -- 66
2017-09-10 08:00:00 18.6 28 Norte 49 Norte 0 -- -- 65
2017-09-10 07:00:00 18.1 29 Norte 44 Norte 0 -- -- 73
2017-09-10 06:00:00 17.3 20 Norte 34 Norte 0.2 -- -- 79
2017-09-10 05:00:00 16 12 Nordeste 31 Este 1 -- -- 93
2017-09-10 04:00:00 15.6 18 Norte 36 Norte 2.2 -- -- 97
2017-09-10 03:00:00 16.5 14 Norte 25 Norte 2 -- -- 86
2017-09-10 02:00:00 16.2 21 Norte 33 Norte 2.6 -- -- 88
2017-09-10 01:00:00 17.7 11 Nordeste 18 Nordeste 0.2 -- -- 91
2017-09-10 00:00:00 17.4 9 Norte 17 Nordeste 0.6 -- -- 93
2017-09-09 23:00:00 18 14 Nordeste 37 Norte 0 -- -- 88
2017-09-09 22:00:00 19.1 26 Norte 49 Norte 0 -- -- 78
2017-09-09 21:00:00 19.4 32 Norte 54 Norte 0 -- -- 75
2017-09-09 20:00:00 20.6 28 Nordeste 48 Norte 0 -- -- 63
2017-09-09 19:00:00 20.9 20 Nordeste 46 Nordeste 0 -- -- 72
2017-09-09 18:00:00 21.5 27 Nordeste 52 Nordeste 0 -- -- 84
2017-09-09 17:00:00 26.8 19 Noroeste 28 Noroeste 0 -- -- 70
2017-09-09 16:00:00 26.9 21 Sudoeste 39 Sudoeste 0 -- -- 72
2017-09-09 15:00:00 26.7 29 Sudoeste 54 Sudoeste 0 -- -- 74
2017-09-09 14:00:00 27.4 32 Sudoeste 50 Sur 0 -- -- 68
2017-09-09 13:00:00 26.7 35 Sur 50 Sur 0 -- -- 73
2017-09-09 12:00:00 26.3 30 Sur 45 Sur 0 -- -- 74
2017-09-09 11:00:00 25.4 23 Sur 39 Sur 0 -- -- 77
2017-09-09 10:00:00 25.3 22 Sur 37 Sur 0 -- -- 76
2017-09-09 09:00:00 23.9 20 Sur 33 Sudoeste 0 -- -- 82
2017-09-09 08:00:00 22.9 18 Sur 32 Sur 0 -- -- 86
2017-09-09 07:00:00 22.2 18 Sur 27 Sur 0 -- -- 86
2017-09-09 06:00:00 22.3 10 Sur 19 Sur 0 -- -- 86
2017-09-09 05:00:00 22.2 9 Sur 15 Sudoeste 0 -- -- 86
2017-09-09 04:00:00 21.8 3 Norte 20 Sudoeste 0 -- -- 90
2017-09-09 03:00:00 22.4 14 Sudoeste 23 Sudoeste 0 -- -- 89
2017-09-09 02:00:00 21.7 5 Sur 23 Sudoeste 0 -- -- 89
2017-09-09 01:00:00 21.8 10 Sudoeste 17 Sudoeste 0 -- -- 86
2017-09-09 00:00:00 21.4 7 Sudoeste 13 Sudoeste 0 -- -- 83
2017-09-08 23:00:00 21.6 9 Sudoeste 13 Sudoeste 0 -- -- 87
2017-09-08 22:00:00 23.1 7 Sur 22 Sur 0 -- -- 85
2017-09-08 21:00:00 23.2 8 Sur 19 Sur 0 -- -- 85
2017-09-08 20:00:00 23.5 10 Sur 24 Sur 0 -- -- 81
2017-09-08 19:00:00 24.4 15 Sur 26 Sur 0 -- -- 71
2017-09-08 18:00:00 24.8 19 Sur 28 Sur 0 -- -- 69
2017-09-08 17:00:00 26.3 13 Sur 25 Sur 0 -- -- 63
2017-09-08 16:00:00 24.6 11 Este 22 Este 0 -- -- 66
2017-09-08 15:00:00 24 11 Este 18 Nordeste 0 -- -- 67
2017-09-08 14:00:00 23.6 10 Nordeste 19 Nordeste 0 -- -- 67
2017-09-08 13:00:00 23.3 12 Nordeste 19 Nordeste 0 -- -- 68
2017-09-08 12:00:00 23.4 12 Nordeste 18 Nordeste 0 -- -- 68
2017-09-08 11:00:00 23.7 9 Este 16 Este 0 -- -- 68
2017-09-08 10:00:00 22.2 7 Nordeste 12 Este 0 -- -- 73
2017-09-08 09:00:00 20.6 0 Calma 5 Oeste 0 -- -- 83
2017-09-08 08:00:00 18.6 3 Noroeste 4 Oeste 0 -- -- 89
2017-09-08 07:00:00 19.3 0 Calma 5 Sudeste 0 -- -- 85
2017-09-08 06:00:00 19.1 3 Oeste 7 Sur 0 -- -- 87
2017-09-08 05:00:00 18.6 0 Calma 7 Sudoeste 0 -- -- 88
2017-09-08 04:00:00 19.1 0 Calma 6 Oeste 0 -- -- 86
2017-09-08 03:00:00 19.7 0 Calma 5 Sudoeste 0 -- -- 83
2017-09-08 02:00:00 19.8 3 Sudoeste 4 Sudoeste 0 -- -- 83
2017-09-08 01:00:00 19.5 0 Calma 4 Sudoeste 0 -- -- 84
2017-09-08 00:00:00 20 2 Sudoeste 4 Oeste 0 -- -- 82
2017-09-07 23:00:00 21 3 Sur 5 Sur 0 -- -- 76
2017-09-07 22:00:00 21.1 0 Calma 6 Nordeste 0 -- -- 75
2017-09-07 21:00:00 21 4 Este 9 Nordeste 0 -- -- 76
2017-09-07 20:00:00 21.4 6 Nordeste 16 Nordeste 0 -- -- 73
2017-09-07 19:00:00 21.7 12 Nordeste 20 Este 0 -- -- 71
2017-09-07 18:00:00 22.4 14 Nordeste 24 Nordeste 0 -- -- 68
2017-09-07 17:00:00 22.9 14 Nordeste 27 Nordeste 0 -- -- 66
2017-09-07 16:00:00 23.3 18 Nordeste 30 Nordeste 0 -- -- 64
2017-09-07 15:00:00 22.5 19 Nordeste 30 Nordeste 0 -- -- 68
2017-09-07 14:00:00 23.5 20 Nordeste 32 Nordeste 0 -- -- 66
2017-09-07 13:00:00 22.6 19 Norte 29 Nordeste 0 -- -- 70
2017-09-07 12:00:00 22.5 20 Nordeste 28 Norte 0 -- -- 75
2017-09-07 11:00:00 20.5 6 Nordeste 17 Nordeste 0.2 -- -- 90
2017-09-07 10:00:00 20.4 13 Nordeste 26 Nordeste 0.6 -- -- 85
2017-09-07 09:00:00 22.6 17 Nordeste 26 Nordeste 0 -- -- 70
2017-09-07 08:00:00 21.9 14 Nordeste 23 Nordeste 0 -- -- 74
2017-09-07 07:00:00 21.8 13 Nordeste 22 Nordeste 0 -- -- 76
2017-09-07 06:00:00 22 12 Nordeste 25 Nordeste 0 -- -- 78
2017-09-07 05:00:00 21.6 5 Nordeste 10 Este 0 -- -- 84
2017-09-07 04:00:00 21.2 2 Norte 5 Noroeste 0 -- -- 85
2017-09-07 03:00:00 21 0 Calma 5 Norte 0 -- -- 85
2017-09-07 02:00:00 20.8 2 Noroeste 4 Oeste 0 -- -- 85
2017-09-07 01:00:00 20.8 2 Norte 5 Oeste 0 -- -- 83
2017-09-07 00:00:00 20.8 0 Calma 4 Este 0 -- -- 83
2017-09-06 23:00:00 21.1 0 Calma 4 Norte 0 -- -- 82
2017-09-06 22:00:00 22.1 2 Nordeste 8 Nordeste 0 -- -- 77
2017-09-06 21:00:00 22.4 4 Nordeste 12 Nordeste 0 -- -- 76
2017-09-06 20:00:00 23 6 Nordeste 19 Nordeste 0 -- -- 74
2017-09-06 19:00:00 23.7 15 Nordeste 23 Nordeste 0 -- -- 71
2017-09-06 18:00:00 24.9 14 Nordeste 30 Nordeste 0 -- -- 69
2017-09-06 17:00:00 25.5 17 Nordeste 27 Nordeste 0 -- -- 66
2017-09-06 16:00:00 25.8 19 Nordeste 32 Este 0 -- -- 64
2017-09-06 15:00:00 26.1 21 Nordeste 32 Nordeste 0 -- -- 65
2017-09-06 14:00:00 25.4 21 Nordeste 36 Nordeste 0 -- -- 66
2017-09-06 13:00:00 26.2 19 Nordeste 40 Nordeste 0 -- -- 62
2017-09-06 12:00:00 26.2 28 Nordeste 39 Nordeste 0 -- -- 59
2017-09-06 11:00:00 26 22 Nordeste 30 Nordeste 0 -- -- 73
2017-09-06 10:00:00 25 13 Nordeste 19 Nordeste 0 -- -- 80
2017-09-06 09:00:00 24.1 4 Nordeste 7 Nordeste 0 -- -- 86
2017-09-06 08:00:00 21.6 4 Sudeste 5 Sudeste 0 -- -- 93
2017-09-06 07:00:00 21.2 3 Sudeste 7 Sur 0 -- -- 93
2017-09-06 06:00:00 21.2 5 Sur 7 Sur 0 -- -- 91
2017-09-06 05:00:00 21.7 3 Este 9 Oeste 0 -- -- 90
2017-09-06 04:00:00 22 4 Sudoeste 12 Sudoeste 0 -- -- 88
2017-09-06 03:00:00 22 2 Sur 14 Sudoeste 0 -- -- 89
2017-09-06 02:00:00 22 8 Sudoeste 12 Sudoeste 0 -- -- 89
2017-09-06 01:00:00 22.3 4 Sur 10 Sur 0 -- -- 85
2017-09-06 00:00:00 22.5 5 Sur 10 Sur 0 -- -- 82
2017-09-05 23:00:00 22.8 6 Sudoeste 12 Sudoeste 0 -- -- 80
2017-09-05 22:00:00 23 9 Sudoeste 13 Sur 0 -- -- 77
2017-09-05 21:00:00 23.7 9 Sur 14 Sur 0 -- -- 75
2017-09-05 20:00:00 25.1 10 Sudoeste 17 Sudoeste 0 -- -- 70
2017-09-05 19:00:00 26.3 6 Oeste 23 Sudoeste 0 -- -- 66
2017-09-05 18:00:00 27.9 15 Sudoeste 22 Sudoeste 0 -- -- 58
2017-09-05 17:00:00 27.8 14 Nordeste 20 Nordeste 0 -- -- 63
2017-09-05 16:00:00 27.4 4 Nordeste 23 Nordeste 0 -- -- 67
2017-09-05 15:00:00 27.8 14 Nordeste 23 Nordeste 0 -- -- 66
2017-09-05 14:00:00 26.9 13 Nordeste 19 Nordeste 0 -- -- 68
2017-09-05 13:00:00 27 10 Norte 18 Noroeste 0 -- -- 67
2017-09-05 12:00:00 29.3 4 Sur 14 Oeste 0 -- -- 50
2017-09-05 11:00:00 27.5 8 Sudoeste 17 Oeste 0 -- -- 57
2017-09-05 10:00:00 25.7 12 Sudoeste 16 Sudoeste 0 -- -- 69
2017-09-05 09:00:00 24.1 2 Sur 5 Sudoeste 0 -- -- 80
2017-09-05 08:00:00 21.3 6 Sudoeste 9 Sudoeste 0 -- -- 89
2017-09-05 07:00:00 20.4 5 Sur 8 Sur 0 -- -- 90
2017-09-05 06:00:00 20.3 5 Sur 6 Sudoeste 0 -- -- 90
2017-09-05 05:00:00 20.6 3 Sudoeste 7 Sur 0 -- -- 89
2017-09-05 04:00:00 20.5 5 Sudoeste 7 Sur 0 -- -- 91
2017-09-05 03:00:00 20.6 4 Sudoeste 8 Sur 0 -- -- 88
2017-09-05 02:00:00 20.9 4 Oeste 6 Oeste 0 -- -- 88
2017-09-05 01:00:00 21.4 2 Sur 9 Sur 0 -- -- 85
2017-09-05 00:00:00 21.2 3 Sur 6 Sudeste 0 -- -- 86
2017-09-04 23:00:00 21.6 0 Calma 5 Oeste 0 -- -- 83
2017-09-04 22:00:00 22.3 0 Calma 6 Nordeste 0 -- -- 80
2017-09-04 21:00:00 23.2 0 Calma 16 Este 0 -- -- 76
2017-09-04 20:00:00 24.5 13 Este 22 Este 0 -- -- 69
2017-09-04 19:00:00 26.9 7 Sur 19 Sudeste 0 -- -- 58
2017-09-04 18:00:00 27 10 Sur 27 Sudeste 0 -- -- 59
2017-09-04 17:00:00 26.3 12 Sudeste 23 Sudoeste 0 -- -- 62
2017-09-04 16:00:00 23.1 3 Nordeste 32 Nordeste 0 -- -- 82
2017-09-04 15:00:00 27 15 Sur 32 Sur 0 -- -- 63
2017-09-04 14:00:00 26.8 11 Sudeste 23 Sur 0 -- -- 63
2017-09-04 13:00:00 25.2 12 Sur 23 Sur 0 -- -- 71
2017-09-04 12:00:00 25.3 15 Sur 23 Sudoeste 0 -- -- 70
2017-09-04 11:00:00 25.4 15 Sur 23 Sur 0 -- -- 70
2017-09-04 10:00:00 25.7 12 Sudoeste 23 Sudoeste 0 -- -- 70
2017-09-04 09:00:00 23.6 8 Sur 12 Sur 0 -- -- 77
2017-09-04 08:00:00 21.6 5 Sudoeste 10 Sudoeste 0 -- -- 86
2017-09-04 07:00:00 21.2 9 Sur 13 Sur 0 -- -- 86
2017-09-04 06:00:00 21.4 6 Sudeste 9 Sudeste 0 -- -- 86
2017-09-04 05:00:00 20.9 4 Sudoeste 9 Oeste 0 -- -- 87
2017-09-04 04:00:00 20.5 5 Sudoeste 8 Sudoeste 0 -- -- 88
2017-09-04 03:00:00 20.9 8 Sudoeste 11 Sudoeste 0 -- -- 87
2017-09-04 02:00:00 21.6 5 Sudoeste 9 Sudoeste 0 -- -- 84
2017-09-04 01:00:00 22.3 3 Sur 18 Sudoeste 0 -- -- 80
2017-09-04 00:00:00 22.9 14 Sudoeste 23 Sudoeste 0 -- -- 79
2017-09-03 23:00:00 23.2 13 Sudoeste 24 Sudoeste 0 -- -- 80
2017-09-03 22:00:00 23.4 11 Sudoeste 21 Sudoeste 0 -- -- 78
2017-09-03 21:00:00 23.7 13 Sur 24 Sudoeste 0 -- -- 75
2017-09-03 20:00:00 24 17 Sur 24 Sur 0 -- -- 71
2017-09-03 19:00:00 24.6 11 Sur 24 Sudoeste 0 -- -- 65
2017-09-03 18:00:00 25.1 13 Sur 24 Sur 0 -- -- 57
2017-09-03 17:00:00 25.9 13 Sur 26 Sudoeste 0 -- -- 46
2017-09-03 16:00:00 26 17 Sudoeste 26 Sudoeste 0 -- -- 46
2017-09-03 15:00:00 26.9 13 Oeste 26 Oeste 0 -- -- 41
2017-09-03 14:00:00 26.9 20 Oeste 32 Oeste 0 -- -- 38
2017-09-03 13:00:00 26.6 15 Oeste 30 Oeste 0 -- -- 44
2017-09-03 12:00:00 26.3 14 Oeste 25 Oeste 0 -- -- 48
2017-09-03 11:00:00 24.5 12 Sudoeste 24 Oeste 0 -- -- 57
2017-09-03 10:00:00 22.8 13 Oeste 18 Oeste 0 -- -- 72
2017-09-03 09:00:00 21.4 11 Sudoeste 17 Sudoeste 0 -- -- 75
2017-09-03 08:00:00 20.2 11 Sur 14 Sur 0 -- -- 82
2017-09-03 07:00:00 19.4 12 Sudoeste 15 Sur 0 -- -- 82
2017-09-03 06:00:00 18.8 13 Sur 15 Sur 0 -- -- 83
2017-09-03 05:00:00 17.5 0 Calma 6 Sur 0 -- -- 80
2017-09-03 04:00:00 17.2 3 Sudoeste 6 Sur 0 -- -- 81
2017-09-03 03:00:00 17.4 3 Sur 6 Sudoeste 0 -- -- 81
2017-09-03 02:00:00 17.6 4 Sur 6 Sur 0 -- -- 81
2017-09-03 01:00:00 18.2 5 Sur 8 Sur 0 -- -- 77
2017-09-03 00:00:00 18 4 Sudoeste 6 Sudoeste 0 -- -- 81
2017-09-02 23:00:00 18.8 2 Sudoeste 3 Oeste 0 -- -- 78
2017-09-02 22:00:00 19.1 0 Calma 6 Este 0 -- -- 79
2017-09-02 21:00:00 20 4 Nordeste 10 Nordeste 0 -- -- 71
2017-09-02 20:00:00 21.2 7 Nordeste 19 Norte 0 -- -- 66
2017-09-02 19:00:00 22 12 Norte 24 Nordeste 0 -- -- 63
2017-09-02 18:00:00 22.5 12 Norte 22 Norte 0 -- -- 61
2017-09-02 17:00:00 22.4 13 Norte 24 Norte 0 -- -- 60
2017-09-02 16:00:00 22.7 15 Norte 26 Nordeste 0 -- -- 58
2017-09-02 15:00:00 22.7 14 Norte 26 Norte 0 -- -- 59
2017-09-02 14:00:00 21.9 15 Norte 28 Norte 0 -- -- 60
2017-09-02 13:00:00 21.7 18 Norte 31 Nordeste 0 -- -- 60
2017-09-02 12:00:00 21.5 20 Nordeste 34 Nordeste 0 -- -- 62
2017-09-02 11:00:00 21.1 16 Norte 32 Norte 0 -- -- 63
2017-09-02 10:00:00 20.6 18 Norte 36 Nordeste 0.4 -- -- 67
2017-09-02 09:00:00 20.5 20 Nordeste 35 Norte 0 -- -- 69
2017-09-02 08:00:00 19.9 10 Nordeste 26 Norte 0 -- -- 77
2017-09-02 07:00:00 20.6 15 Nordeste 22 Norte 0 -- -- 68
2017-09-02 06:00:00 20.6 15 Nordeste 30 Norte 0 -- -- 69
2017-09-02 05:00:00 20.9 18 Norte 31 Norte 0 -- -- 65
2017-09-02 04:00:00 21.5 19 Nordeste 28 Nordeste 0 -- -- 61
2017-09-02 03:00:00 22.1 17 Norte 30 Norte 0 -- -- 57
2017-09-02 02:00:00 22.2 17 Norte 33 Norte 0 -- -- 52
2017-09-02 01:00:00 22.3 18 Norte 30 Norte 0 -- -- 51
2017-09-02 00:00:00 21.9 17 Norte 26 Norte 0 -- -- 55
2017-09-01 23:00:00 21.7 16 Norte 28 Nordeste 0 -- -- 63
2017-09-01 22:00:00 21.7 17 Norte 27 Norte 0 -- -- 65
2017-09-01 21:00:00 21.5 12 Nordeste 25 Nordeste 0 -- -- 66
2017-09-01 20:00:00 22.1 17 Nordeste 28 Nordeste 0 -- -- 62
2017-09-01 19:00:00 22.8 20 Nordeste 31 Nordeste 0 -- -- 59
2017-09-01 18:00:00 22.9 24 Nordeste 33 Nordeste 0 -- -- 60
2017-09-01 17:00:00 23.7 23 Nordeste 37 Nordeste 0 -- -- 58
2017-09-01 16:00:00 24.2 24 Nordeste 40 Nordeste 0 -- -- 58
2017-09-01 15:00:00 23.7 24 Nordeste 38 Norte 0 -- -- 62
2017-09-01 14:00:00 24 23 Norte 37 Nordeste 0 -- -- 64
2017-09-01 13:00:00 23.8 24 Nordeste 36 Norte 0 -- -- 64
2017-09-01 12:00:00 23.7 24 Nordeste 37 Nordeste 0 -- -- 66
2017-09-01 11:00:00 23 24 Nordeste 39 Nordeste 0 -- -- 70
2017-09-01 10:00:00 22.5 24 Nordeste 35 Nordeste 0 -- -- 73
2017-09-01 09:00:00 21.8 22 Nordeste 34 Nordeste 0 -- -- 77
2017-09-01 08:00:00 21.2 16 Nordeste 26 Nordeste 0 -- -- 79
2017-09-01 07:00:00 20.8 14 Nordeste 24 Nordeste 0 -- -- 80
2017-09-01 06:00:00 20.7 11 Nordeste 20 Norte 0 -- -- 82
2017-09-01 05:00:00 20.9 14 Norte 26 Nordeste 0 -- -- 84
2017-09-01 04:00:00 21.2 14 Norte 23 Norte 0 -- -- 87
2017-09-01 03:00:00 21.3 14 Norte 22 Norte 0 -- -- 90
2017-09-01 02:00:00 21.3 14 Norte 21 Norte 0 -- -- 93
2017-09-01 01:00:00 21.2 7 Norte 15 Norte 0 -- -- 94
2017-09-01 00:00:00 21.2 9 Norte 16 Norte 0 -- -- 95
2017-08-31 23:00:00 20.8 7 Norte 9 Norte 0 -- -- 96
2017-08-31 22:00:00 20.9 5 Norte 12 Nordeste 0 -- -- 95
2017-08-31 21:00:00 21 10 Nordeste 21 Nordeste 0 -- -- 94
2017-08-31 20:00:00 20.8 13 Nordeste 27 Nordeste 0.2 -- -- 96
2017-08-31 19:00:00 20.5 15 Norte 27 Norte 2.8 -- -- 99
2017-08-31 18:00:00 20.3 14 Norte 36 Norte 0 -- -- 97
2017-08-31 17:00:00 21.1 25 Norte 43 Nordeste 28.8 -- -- 96
2017-08-31 16:00:00 25.3 22 Nordeste 42 Nordeste 0 -- -- 86
2017-08-31 15:00:00 29.3 21 Nordeste 32 Nordeste 0 -- -- 59
2017-08-31 14:00:00 29 13 Nordeste 25 Nordeste 0 -- -- 58
2017-08-31 13:00:00 27.4 13 Nordeste 35 Nordeste 0 -- -- 68
2017-08-31 12:00:00 28.1 17 Este 30 Este 0 -- -- 64
2017-08-31 11:00:00 26.6 18 Nordeste 29 Nordeste 0 -- -- 74
2017-08-31 10:00:00 25.7 19 Nordeste 29 Nordeste 0 -- -- 82
2017-08-31 09:00:00 24.3 10 Nordeste 17 Nordeste 0 -- -- 87
2017-08-31 08:00:00 22.7 4 Noroeste 7 Oeste 0 -- -- 90
2017-08-31 07:00:00 22.4 0 Calma 11 Oeste 0 -- -- 89
2017-08-31 06:00:00 22.3 5 Sudoeste 13 Nordeste 0 -- -- 88
2017-08-31 05:00:00 22.3 4 Sudoeste 12 Este 0 -- -- 88
2017-08-31 04:00:00 22.6 6 Este 9 Este 0 -- -- 87
2017-08-31 03:00:00 22.1 8 Sudoeste 10 Sudoeste 0 -- -- 90
2017-08-31 02:00:00 22.1 4 Sudoeste 6 Sudeste 0 -- -- 87
2017-08-31 01:00:00 22.6 4 Sudoeste 6 Sur 0 -- -- 85
2017-08-31 00:00:00 22.7 4 Oeste 6 Oeste 0 -- -- 83
2017-08-30 23:00:00 23.5 3 Noroeste 5 Nordeste 0 -- -- 80
2017-08-30 22:00:00 24.5 3 Nordeste 6 Noroeste 0 -- -- 76
2017-08-30 21:00:00 25.5 4 Norte 7 Nordeste 0 -- -- 68
2017-08-30 20:00:00 26.4 4 Norte 11 Norte 0 -- -- 63
2017-08-30 19:00:00 28 4 Norte 14 Nordeste 0 -- -- 59
2017-08-30 18:00:00 29 6 Nordeste 14 Norte 0 -- -- 56
2017-08-30 17:00:00 28 11 Norte 20 Norte 0 -- -- 63
2017-08-30 16:00:00 29.5 14 Norte 24 Norte 0 -- -- 58
2017-08-30 15:00:00 29.8 7 Norte 14 Norte 0 -- -- 48
2017-08-30 14:00:00 28 9 Norte 21 Norte 0 -- -- 63
2017-08-30 13:00:00 27.6 14 Norte 26 Norte 0 -- -- 62
2017-08-30 12:00:00 27.6 16 Norte 23 Norte 0 -- -- 65
2017-08-30 11:00:00 26.3 14 Norte 28 Norte 0 -- -- 73
2017-08-30 10:00:00 24.6 17 Norte 28 Noroeste 0 -- -- 80
2017-08-30 09:00:00 22.9 18 Noroeste 35 Noroeste 0.4 -- -- 84
2017-08-30 08:00:00 23.2 19 Norte 37 Noroeste 1 -- -- 86
2017-08-30 07:00:00 24.5 15 Noroeste 36 Noroeste 0 -- -- 77
2017-08-30 06:00:00 24.5 18 Noroeste 35 Noroeste 0 -- -- 78
2017-08-30 05:00:00 25.2 20 Oeste 37 Noroeste 0 -- -- 74
2017-08-30 04:00:00 23.7 14 Oeste 22 Noroeste 0 -- -- 94
2017-08-30 03:00:00 23.8 5 Este 8 Nordeste 0 -- -- 93
2017-08-30 02:00:00 24.2 5 Nordeste 8 Nordeste 0 -- -- 91
2017-08-30 01:00:00 24.3 3 Nordeste 8 Noroeste 0 -- -- 89
2017-08-30 00:00:00 24.4 3 Noroeste 5 Noroeste 0 -- -- 88
2017-08-29 23:00:00 25 0 Calma 7 Oeste 0 -- -- 91
2017-08-29 22:00:00 25.3 2 Noroeste 8 Nordeste 0 -- -- 88
2017-08-29 21:00:00 26.1 6 Nordeste 10 Nordeste 0 -- -- 86
2017-08-29 20:00:00 27.3 9 Nordeste 15 Nordeste 0 -- -- 76
2017-08-29 19:00:00 29 10 Norte 17 Norte 0 -- -- 61
2017-08-29 18:00:00 29.4 13 Norte 20 Norte 0 -- -- 64
2017-08-29 17:00:00 30.3 14 Norte 23 Norte 0 -- -- 60
2017-08-29 16:00:00 30.8 13 Norte 24 Norte 0 -- -- 61
2017-08-29 15:00:00 32 14 Norte 23 Norte 0 -- -- 58
2017-08-29 14:00:00 32.2 13 Norte 23 Norte 0 -- -- 54
2017-08-29 13:00:00 31.8 15 Norte 23 Norte 0 -- -- 57
2017-08-29 12:00:00 31.1 11 Norte 17 Norte 0 -- -- 63
2017-08-29 11:00:00 30.1 14 Norte 19 Norte 0 -- -- 69
2017-08-29 10:00:00 29.5 4 Este 11 Este 0 -- -- 70
2017-08-29 09:00:00 25.9 3 Oeste 7 Oeste 0 -- -- 94
2017-08-29 08:00:00 24.7 5 Sur 6 Oeste 0 -- -- 97
2017-08-29 07:00:00 25 3 Oeste 14 Sur 0 -- -- 96
2017-08-29 06:00:00 24.9 10 Sur 14 Sur 0 -- -- 92
2017-08-29 05:00:00 24.4 3 Sudoeste 3 Sudoeste 0 -- -- 95
2017-08-29 04:00:00 24.6 0 Calma 8 Sudoeste 0 -- -- 95
2017-08-29 03:00:00 25.2 5 Sudoeste 9 Sur 0 -- -- 96
2017-08-29 02:00:00 25.4 4 Sur 15 Sudoeste 0 -- -- 93
2017-08-29 01:00:00 25.4 8 Sudoeste 15 Sudoeste 0 -- -- 91
2017-08-29 00:00:00 25.4 5 Sur 12 Sudeste 0 -- -- 86
2017-08-28 23:00:00 25.7 5 Sudeste 10 Sudoeste 0 -- -- 85
2017-08-28 22:00:00 26.2 10 Sudoeste 14 Sudoeste 0 -- -- 84
2017-08-28 21:00:00 26.9 10 Sudoeste 21 Sudoeste 0 -- -- 79
2017-08-28 20:00:00 28.8 13 Sudoeste 21 Sudoeste 0 -- -- 49
2017-08-28 19:00:00 31.2 10 Sudoeste 17 Sudoeste 0 -- -- 39
2017-08-28 18:00:00 30.8 6 Sur 21 Sudoeste 0 -- -- 49
2017-08-28 17:00:00 31.3 16 Sudoeste 24 Sudoeste 0 -- -- 49
2017-08-28 16:00:00 33.2 18 Sudoeste 28 Sudoeste 0 -- -- 38
2017-08-28 15:00:00 32.6 12 Sudoeste 22 Sur 0 -- -- 44
2017-08-28 14:00:00 31.2 10 Norte 20 Norte 0 -- -- 60
2017-08-28 13:00:00 31.8 10 Norte 19 Norte 0 -- -- 61
2017-08-28 12:00:00 32.4 10 Nordeste 17 Norte 0 -- -- 62
2017-08-28 11:00:00 31 3 Sudeste 10 Sudeste 0 -- -- 55
2017-08-28 10:00:00 27.6 5 Este 15 Sudeste 0 -- -- 76
2017-08-28 09:00:00 24.3 10 Sudeste 15 Sudeste 0 -- -- 99
2017-08-28 08:00:00 23.8 9 Sur 15 Sur 0 -- -- 98
2017-08-28 07:00:00 23.5 4 Sur 12 Sudeste 0 -- -- 98
2017-08-28 06:00:00 22.5 2 Oeste 6 Sudoeste 0 -- -- 98
2017-08-28 05:00:00 22.4 0 Calma 6 Este 0 -- -- 97
2017-08-28 04:00:00 23.3 3 Sudeste 13 Sur 0 -- -- 97
2017-08-28 03:00:00 23.4 5 Sur 9 Sur 0 -- -- 95
2017-08-28 02:00:00 23.3 2 Sudoeste 6 Oeste 0 -- -- 95
2017-08-28 01:00:00 24 5 Sur 8 Sudeste 0 -- -- 95
2017-08-28 00:00:00 23.8 2 Oeste 7 Oeste 0 -- -- 92
2017-08-27 23:00:00 24.7 3 Sur 14 Oeste 0 -- -- 90
2017-08-27 22:00:00 25.6 0 Calma 10 Sudeste 0 -- -- 85
2017-08-27 21:00:00 26.6 8 Sudeste 13 Sur 0 -- -- 82
2017-08-27 20:00:00 28.4 5 Sur 13 Este 0 -- -- 70
2017-08-27 19:00:00 30.4 9 Este 18 Sudeste 0 -- -- 60
2017-08-27 18:00:00 31.2 11 Sudeste 29 Este 0 -- -- 51
2017-08-27 17:00:00 33.3 21 Este 31 Sudeste 0 -- -- 48
2017-08-27 16:00:00 35.5 12 Sudoeste 24 Sudoeste 0 -- -- 45
2017-08-27 15:00:00 35 11 Sudeste 23 Sudeste 0 -- -- 39
2017-08-27 14:00:00 34.1 16 Sur 25 Este 0 -- -- 37
2017-08-27 13:00:00 33.2 12 Sudeste 26 Este 0 -- -- 50
2017-08-27 12:00:00 32.4 11 Sudeste 20 Sudeste 0 -- -- 53
2017-08-27 11:00:00 30.5 4 Este 16 Nordeste 0 -- -- 60
2017-08-27 10:00:00 27.8 4 Sudeste 11 Sudeste 0 -- -- 75
2017-08-27 09:00:00 25 5 Este 8 Este 0 -- -- 88
2017-08-27 08:00:00 22.1 0 Calma 6 Oeste 0 -- -- 97
2017-08-27 07:00:00 21.8 2 Norte 6 Sudeste 0 -- -- 95
2017-08-27 06:00:00 22.1 2 Norte 5 Oeste 0 -- -- 95
2017-08-27 05:00:00 22.5 0 Calma 7 Este 0 -- -- 93
2017-08-27 04:00:00 23.2 5 Nordeste 8 Nordeste 0 -- -- 92
2017-08-27 03:00:00 23.5 0 Calma 6 Sudoeste 0 -- -- 93
2017-08-27 02:00:00 23.4 4 Sudeste 6 Sur 0 -- -- 95
2017-08-27 01:00:00 23.6 5 Sur 15 Sudeste 0 -- -- 93
2017-08-27 00:00:00 23.3 0 Calma 7 Sudeste 0 -- -- 93
2017-08-26 23:00:00 23.9 3 Nordeste 9 Nordeste 0 -- -- 90
2017-08-26 22:00:00 24.3 6 Nordeste 15 Nordeste 0 -- -- 90
2017-08-26 21:00:00 24.6 10 Este 18 Nordeste 0 -- -- 90
2017-08-26 20:00:00 25.8 12 Nordeste 22 Nordeste 0 -- -- 84
2017-08-26 19:00:00 27.7 15 Nordeste 23 Nordeste 0 -- -- 75
2017-08-26 18:00:00 29.2 15 Nordeste 26 Nordeste 0 -- -- 68
2017-08-26 17:00:00 29.9 13 Nordeste 26 Nordeste 0 -- -- 65
2017-08-26 16:00:00 30.1 17 Nordeste 28 Nordeste 0 -- -- 63
2017-08-26 15:00:00 30.5 21 Nordeste 32 Nordeste 0 -- -- 63
2017-08-26 14:00:00 31.3 17 Este 31 Nordeste 0 -- -- 61
2017-08-26 13:00:00 31.2 10 Sudeste 17 Sudeste 0 -- -- 58
2017-08-26 12:00:00 30.3 13 Sudeste 31 Este 0 -- -- 63
2017-08-26 11:00:00 28.7 17 Sudeste 27 Sudeste 0 -- -- 67
2017-08-26 10:00:00 27.7 13 Este 22 Sudeste 0 -- -- 74
2017-08-26 09:00:00 25.6 7 Este 15 Este 0 -- -- 84
2017-08-26 08:00:00 22.7 0 Calma 10 Sudeste 0 -- -- 94
2017-08-26 07:00:00 22.2 4 Este 14 Sudeste 0 -- -- 94
2017-08-26 06:00:00 21.9 6 Sudeste 10 Sudeste 0 -- -- 96
2017-08-26 05:00:00 21.9 0 Calma 6 Oeste 0 -- -- 95
2017-08-26 04:00:00 22.7 2 Este 6 Este 0 -- -- 92
2017-08-26 03:00:00 23.5 0 Calma 10 Sudoeste 0 -- -- 91
2017-08-26 02:00:00 23.3 4 Sudoeste 18 Sudeste 0 -- -- 92
2017-08-26 01:00:00 23.5 6 Sudeste 19 Este 0 -- -- 91
2017-08-26 00:00:00 23.7 7 Sudeste 23 Sudeste 0 -- -- 91